Weather History for Coeur d'Alene, ID

Change the Weather History Date:

Thursday, April 25, 2013

  Actual Average Record
Temperature  
Mean Temperature 52 °F -  
Max Temperature 66 °F 57 °F 75 °F (2005)
Min Temperature 37 °F 35 °F 32 °F (2004)
Degree Days  
Heating Degree Days 14    
Growing Degree Days 2 (Base 50)    
Moisture  
Dew Point 33 °F    
Average Humidity 50    
Maximum Humidity 81    
Minimum Humidity 28    
Precipitation  
Precipitation 0.00 in - - ()
Sea Level Pressure  
Sea Level Pressure 29.97 in    
Wind  
Wind Speed 7 mph (SSW)    
Max Wind Speed 15 mph    
Max Gust Speed 24 mph    
Visibility 10 miles    
Events      
Averages and records for this station are not official NWS values.
T = Trace of Precipitation, MM = Missing Value Source: NWS Daily Summary

Daily Weather History Graph

Daily Weather History Graph

Search for Another Location

Airport:

Trip Planner

Search our weather history database for the weather conditions in past years. The results will help you decide how hot, cold, wet, or windy it might be!

Date:

Astronomy

Apr. 25, 2013 Rise Set
Actual Time 5:39 AM PDT 7:51 PM PDT
Civil Twilight 5:05 AM PDT 8:25 PM PDT
Nautical Twilight 4:23 AM PDT 9:07 PM PDT
Astronomical Twilight 3:36 AM PDT 9:55 PM PDT
Moon 8:13 PM PDT (4/25) 5:25 AM PDT (4/25)
Length of Visible Light 15h 20m
Length of Day
14h 12m
Full, 100% of the Moon is Illuminated
Apr 25
Full
Apr 25
Full
May 2
Last Quarter
May 9
New
May 17
First Quarter

Hourly Weather History & Observations

Time (PDT) Temp. Windchill Dew Point Humidity Pressure Visibility Wind Dir Wind Speed Gust Speed Precip Events Conditions
12:15 AM 44.6 °F 42.2 °F 30.2 °F 57% 29.97 in 10.0 mi South 4.6 mph - N/A   Clear
12:35 AM 44.6 °F 41.4 °F 32.0 °F 61% 29.97 in 10.0 mi South 5.8 mph - N/A   Partly Cloudy
12:55 AM 44.6 °F 38.8 °F 32.0 °F 61% 29.96 in 10.0 mi South 11.5 mph - N/A   Scattered Clouds
1:15 AM 44.6 °F 39.7 °F 32.0 °F 61% 29.96 in 10.0 mi SSE 9.2 mph - N/A   Partly Cloudy
1:35 AM 44.6 °F 40.2 °F 32.0 °F 61% 29.96 in 10.0 mi South 8.1 mph - N/A   Mostly Cloudy
1:55 AM 44.6 °F 40.2 °F 32.0 °F 61% 29.96 in 10.0 mi SSE 8.1 mph - N/A   Mostly Cloudy
2:15 AM 42.8 °F 38.6 °F 32.0 °F 66% 29.95 in 10.0 mi SSE 6.9 mph - N/A   Overcast
2:35 AM 42.8 °F - 32.0 °F 66% 29.94 in 10.0 mi Calm Calm - N/A   Overcast
2:55 AM 41.0 °F - 30.2 °F 65% 29.94 in 10.0 mi Calm Calm - N/A   Mostly Cloudy
3:15 AM 41.0 °F 39.0 °F 12.2 °F 31% 29.93 in 10.0 mi SSW 3.5 mph - N/A   Partly Cloudy
3:35 AM 39.2 °F 35.0 °F 28.4 °F 65% 29.94 in 10.0 mi NE 5.8 mph - N/A   Clear
3:55 AM 39.2 °F 35.9 °F 32.0 °F 75% 29.94 in 10.0 mi NE 4.6 mph - N/A   Clear
4:15 AM 37.4 °F - 30.2 °F 75% 29.94 in 10.0 mi Calm Calm - N/A   Partly Cloudy
4:35 AM 37.4 °F 33.8 °F 30.2 °F 75% 29.94 in 10.0 mi SSE 4.6 mph - N/A   Clear
4:55 AM 37.4 °F 32.8 °F 28.4 °F 70% 29.94 in 10.0 mi SE 5.8 mph - N/A   Clear
5:15 AM 39.2 °F 34.2 °F 32.0 °F 75% 29.94 in 10.0 mi South 6.9 mph - N/A   Clear
5:35 AM 39.2 °F 35.9 °F 32.0 °F 75% 29.94 in 10.0 mi South 4.6 mph - N/A   Clear
5:55 AM 39.2 °F 35.9 °F 30.2 °F 70% 29.94 in 10.0 mi South 4.6 mph - N/A   Clear
6:15 AM 39.2 °F 34.2 °F 33.8 °F 81% 29.94 in 10.0 mi SSE 6.9 mph - N/A   Clear
6:35 AM 39.2 °F 33.6 °F 32.0 °F 75% 29.94 in 10.0 mi SSE 8.1 mph - N/A   Clear
6:55 AM 41.0 °F 38.0 °F 33.8 °F 76% 29.95 in 10.0 mi SSE 4.6 mph - N/A   Clear
7:15 AM 42.8 °F 38.0 °F 33.8 °F 70% 29.95 in 10.0 mi SSE 8.1 mph - N/A   Clear
7:35 AM 42.8 °F 39.3 °F 33.8 °F 70% 29.95 in 10.0 mi South 5.8 mph - N/A   Clear
7:55 AM 46.4 °F 42.9 °F 35.6 °F 66% 29.95 in 10.0 mi South 6.9 mph - N/A   Clear
8:15 AM 46.4 °F 41.1 °F 33.8 °F 62% 29.95 in 10.0 mi South 11.5 mph - N/A   Clear
8:35 AM 48.2 °F - 35.6 °F 62% 29.97 in 10.0 mi South 8.1 mph - N/A   Clear
8:55 AM 50.0 °F - 35.6 °F 58% 29.96 in 10.0 mi South 9.2 mph - N/A   Clear
9:15 AM 51.8 °F - 33.8 °F 50% 29.96 in 10.0 mi South 8.1 mph - N/A   Clear
9:35 AM 53.6 °F - 33.8 °F 47% 29.96 in 10.0 mi South 5.8 mph - N/A   Clear
9:55 AM 53.6 °F - 33.8 °F 47% 29.97 in 10.0 mi Calm Calm - N/A   Clear
10:15 AM 55.4 °F - 33.8 °F 44% 29.96 in 10.0 mi South 8.1 mph - N/A   Clear
10:35 AM 55.4 °F - 35.6 °F 47% 29.97 in 10.0 mi South 5.8 mph - N/A   Clear
10:55 AM 55.4 °F - 35.6 °F 47% 29.97 in 10.0 mi SSW 5.8 mph - N/A   Clear
11:15 AM 57.2 °F - 35.6 °F 44% 29.97 in 10.0 mi WSW 6.9 mph - N/A   Clear
11:35 AM 59.0 °F - 35.6 °F 42% 29.97 in 10.0 mi Calm Calm - N/A   Clear
11:55 AM 59.0 °F - 35.6 °F 42% 29.97 in 10.0 mi WSW 8.1 mph - N/A   Clear
12:15 PM 60.8 °F - 35.6 °F 39% 29.97 in 10.0 mi SW 8.1 mph - N/A   Clear
12:35 PM 62.6 °F - 37.4 °F 39% 29.97 in 10.0 mi West 4.6 mph - N/A   Clear
12:55 PM 62.6 °F - 35.6 °F 37% 29.97 in 10.0 mi SW 13.8 mph 17.3 mph N/A   Clear
1:15 PM 64.4 °F - 35.6 °F 34% 29.97 in 10.0 mi West 12.7 mph - N/A   Clear
1:35 PM 64.4 °F - 35.6 °F 34% 29.96 in 10.0 mi WSW 12.7 mph 18.4 mph N/A   Clear
1:55 PM 64.4 °F - 35.6 °F 34% 29.96 in 10.0 mi WSW 15.0 mph 20.7 mph N/A   Clear
2:15 PM 66.2 °F - 35.6 °F 32% 29.96 in 10.0 mi SW 13.8 mph 19.6 mph N/A   Clear
2:35 PM 66.2 °F - 33.8 °F 30% 29.96 in 10.0 mi SW 13.8 mph 17.3 mph N/A   Clear
2:55 PM 66.2 °F - 35.6 °F 32% 29.96 in 10.0 mi WSW 9.2 mph 17.3 mph N/A   Clear
3:15 PM 66.2 °F - 32.0 °F 28% 29.96 in 10.0 mi WSW 12.7 mph 20.7 mph N/A   Clear
3:35 PM 66.2 °F - 33.8 °F 30% 29.96 in 10.0 mi West 9.2 mph 23.0 mph N/A   Clear
3:55 PM 66.2 °F - 33.8 °F 30% 29.96 in 10.0 mi WSW 15.0 mph 24.2 mph N/A   Clear
4:15 PM 66.2 °F - 33.8 °F 30% 29.96 in 10.0 mi West 15.0 mph 18.4 mph N/A   Clear
4:35 PM 66.2 °F - 33.8 °F 30% 29.96 in 10.0 mi WSW 12.7 mph - N/A   Clear
4:55 PM 66.2 °F - 33.8 °F 30% 29.96 in 10.0 mi West 10.4 mph 17.3 mph N/A   Partly Cloudy
5:15 PM 66.2 °F - 33.8 °F 30% 29.96 in 10.0 mi SW 10.4 mph - N/A   Clear
5:35 PM 66.2 °F - 33.8 °F 30% 29.96 in 10.0 mi West 8.1 mph 17.3 mph N/A   Clear
5:55 PM 66.2 °F - 32.0 °F 28% 29.96 in 10.0 mi West 9.2 mph 18.4 mph N/A   Clear
6:15 PM 66.2 °F - 33.8 °F 30% 29.96 in 10.0 mi WSW 11.5 mph - N/A   Clear
6:35 PM 64.4 °F - 33.8 °F 32% 29.97 in 10.0 mi WSW 9.2 mph - N/A   Mostly Cloudy
6:55 PM 62.6 °F - 35.6 °F 37% 29.97 in 10.0 mi WSW 8.1 mph - N/A   Partly Cloudy
7:15 PM 60.8 °F - 37.4 °F 42% 29.97 in 10.0 mi WSW 8.1 mph - N/A   Clear
7:35 PM 59.0 °F - 37.4 °F 45% 29.98 in 10.0 mi SW 5.8 mph - N/A   Clear
7:55 PM 57.2 °F - 37.4 °F 48% 29.98 in 10.0 mi SW 5.8 mph - N/A   Clear
8:15 PM 53.6 °F - 35.6 °F 51% 29.99 in 10.0 mi SSW 8.1 mph - N/A   Clear
8:35 PM 53.6 °F - 33.8 °F 47% 30.00 in 10.0 mi SSW 5.8 mph - N/A   Clear
8:55 PM 53.6 °F - 35.6 °F 51% 30.02 in 10.0 mi Calm Calm - N/A   Clear
9:15 PM 53.6 °F - 30.2 °F 41% 30.02 in 10.0 mi SSW 3.5 mph - N/A   Clear
9:35 PM 50.0 °F - 33.8 °F 54% 30.03 in 10.0 mi SSW 3.5 mph - N/A   Clear
9:55 PM 51.8 °F - 33.8 °F 50% 30.03 in 10.0 mi Calm Calm - N/A   Clear
10:15 PM 51.8 °F - 35.6 °F 54% 30.04 in 10.0 mi WSW 4.6 mph - N/A   Clear
10:35 PM 51.8 °F - 35.6 °F 54% 30.04 in 10.0 mi South 4.6 mph - N/A   Clear
10:55 PM 51.8 °F - 33.8 °F 50% 30.04 in 10.0 mi South 5.8 mph - N/A   Clear
11:15 PM 51.8 °F - 33.8 °F 50% 30.05 in 10.0 mi SE 5.8 mph - N/A   Clear
11:35 PM 51.8 °F - 35.6 °F 54% 30.06 in 10.0 mi SSE 3.5 mph - N/A   Clear